Flugplatz Erbach

Für EDNE sind keine METAR/TAF Berichte vorhanden.
Es werden die Flugwettermeldungen vom Flugplatz Laupheim Airport in 13 km Entfernung angezeigt.

Bericht für ETHL

vom 20.10. um 18:20 UTC

Wind 3 kt aus 10°

Sichtweite 6000 m

aufgelockert bewölkt in 15000 ft

aufgebrochene Bewölkung in 28000 ft

Temperatur 11.0°C

Taupunkt 10.0°C

Luftfeuchtigkeit 94%

Luftdruck 1009 hPa

ETHL 201820Z 01003KT 6000 SCT150 BKN280 11/10 Q1009 WHT
Keine Prognose (TAF) verfügbar.
Impressum